createdAt,value
2023-03-11T00:01:30.840Z,2.10
2023-03-11T00:04:00.052Z,1.33
2023-03-11T00:06:27.824Z,1.30
2023-03-11T00:08:56.960Z,1.50
2023-03-11T00:11:25.070Z,1.13
2023-03-11T00:13:52.886Z,1.00
2023-03-11T00:16:20.776Z,1.40
2023-03-11T00:18:52.518Z,1.20
2023-03-11T00:21:20.969Z,1.13
2023-03-11T00:23:48.914Z,1.60
2023-03-11T00:26:18.022Z,1.30
2023-03-11T00:28:45.810Z,1.40
2023-03-11T00:31:14.110Z,1.20
2023-03-11T00:33:41.972Z,1.40
2023-03-11T00:36:22.647Z,1.35
2023-03-11T00:38:50.436Z,1.40
2023-03-11T00:41:19.573Z,1.17
2023-03-11T00:43:47.627Z,1.10
2023-03-11T00:46:15.449Z,1.35
2023-03-11T00:48:43.293Z,1.23
2023-03-11T00:51:14.595Z,1.30
2023-03-11T00:53:42.459Z,1.17
2023-03-11T00:56:11.941Z,1.55
2023-03-11T00:58:41.994Z,1.30
2023-03-11T01:01:10.406Z,1.30
2023-03-11T01:03:39.046Z,1.38
2023-03-11T01:06:09.036Z,1.50
2023-03-11T01:08:37.217Z,1.27
2023-03-11T01:11:06.019Z,1.42
2023-03-11T01:13:34.787Z,1.40
2023-03-11T01:16:04.024Z,1.50
2023-03-11T01:18:31.837Z,1.10
2023-03-11T01:20:59.657Z,1.40
2023-03-11T01:23:27.776Z,1.40
2023-03-11T01:25:55.840Z,1.40
2023-03-11T01:28:23.667Z,1.30
2023-03-11T01:30:51.674Z,1.38
2023-03-11T01:33:20.952Z,1.55
2023-03-11T01:35:49.311Z,1.20
2023-03-11T01:38:17.216Z,1.40
2023-03-11T01:40:47.020Z,1.65
2023-03-11T01:43:40.813Z,1.30
2023-03-11T01:46:15.424Z,1.33
2023-03-11T01:48:47.925Z,1.30
2023-03-11T01:51:18.352Z,1.33
2023-03-11T01:53:46.888Z,1.13
2023-03-11T01:56:15.428Z,1.30
2023-03-11T01:58:45.541Z,1.98
2023-03-11T02:01:14.167Z,1.57
2023-03-11T02:03:42.830Z,1.20
2023-03-11T02:06:15.180Z,1.30
2023-03-11T02:08:43.799Z,1.38
2023-03-11T02:11:16.673Z,1.33
2023-03-11T02:13:46.327Z,1.30
2023-03-11T02:16:14.985Z,1.40
2023-03-11T02:18:44.285Z,1.00
2023-03-11T02:21:24.022Z,1.33
2023-03-11T02:23:58.664Z,1.60
2023-03-11T02:26:32.147Z,1.30
2023-03-11T02:29:02.976Z,1.40
2023-03-11T02:31:31.948Z,1.10
2023-03-11T02:34:02.574Z,1.30
2023-03-11T02:36:38.486Z,1.30
2023-03-11T02:39:07.359Z,1.20
2023-03-11T02:41:38.524Z,1.20
2023-03-11T02:44:10.724Z,1.23
2023-03-11T02:46:41.608Z,1.20
2023-03-11T02:49:10.416Z,1.40
2023-03-11T02:51:38.412Z,1.30
2023-03-11T02:54:07.401Z,1.30
2023-03-11T02:56:35.223Z,1.40
2023-03-11T02:59:02.986Z,1.20
2023-03-11T03:01:32.544Z,1.20
2023-03-11T03:04:00.433Z,1.17
2023-03-11T03:06:28.624Z,1.25
2023-03-11T03:08:56.951Z,1.40
2023-03-11T03:11:24.757Z,1.30
2023-03-11T03:13:52.521Z,1.23
2023-03-11T03:16:20.360Z,1.40
2023-03-11T03:18:49.645Z,1.17
2023-03-11T03:21:17.408Z,1.30
2023-03-11T03:23:45.206Z,1.45
2023-03-11T03:26:14.595Z,1.35
2023-03-11T03:28:42.321Z,1.67
2023-03-11T03:31:11.695Z,1.20
2023-03-11T03:33:39.880Z,1.20
2023-03-11T03:36:11.357Z,1.40
2023-03-11T03:38:39.173Z,1.20
2023-03-11T03:41:07.097Z,1.40
2023-03-11T03:43:34.867Z,1.30
2023-03-11T03:46:04.969Z,1.55
2023-03-11T03:48:32.943Z,1.55
2023-03-11T03:51:04.385Z,1.63
2023-03-11T03:53:35.321Z,1.25
2023-03-11T03:56:04.349Z,2.65
2023-03-11T03:58:32.150Z,1.35
2023-03-11T04:01:00.216Z,1.65
2023-03-11T04:03:29.086Z,1.30
2023-03-11T04:06:07.403Z,1.38
2023-03-11T04:08:36.701Z,1.35
2023-03-11T04:11:05.017Z,1.25
2023-03-11T04:13:32.873Z,1.17
2023-03-11T04:16:00.867Z,1.40
2023-03-11T04:18:28.661Z,1.48
2023-03-11T04:20:56.456Z,1.00
2023-03-11T04:23:24.322Z,1.10
2023-03-11T04:25:53.481Z,1.50
2023-03-11T04:28:21.287Z,1.50
2023-03-11T04:30:49.114Z,1.30
2023-03-11T04:33:16.901Z,2.03
2023-03-11T04:35:44.806Z,1.50
2023-03-11T04:38:12.647Z,1.30
2023-03-11T04:40:41.100Z,1.30
2023-03-11T04:43:10.595Z,1.30
2023-03-11T04:45:40.050Z,1.58
2023-03-11T04:48:08.261Z,2.38
2023-03-11T04:50:36.191Z,1.67
2023-03-11T04:53:04.001Z,1.30
2023-03-11T04:55:33.182Z,1.30
2023-03-11T04:58:01.024Z,2.08
2023-03-11T05:00:30.460Z,1.27
2023-03-11T05:02:58.362Z,1.50
2023-03-11T05:05:26.197Z,1.37
2023-03-11T05:07:54.007Z,1.95
2023-03-11T05:10:23.094Z,1.58
2023-03-11T05:12:51.102Z,1.70
2023-03-11T05:15:19.300Z,1.50
2023-03-11T05:17:48.729Z,1.33
2023-03-11T05:20:16.671Z,1.60
2023-03-11T05:22:44.609Z,1.40
2023-03-11T05:25:12.470Z,1.67
2023-03-11T05:27:40.422Z,1.60
2023-03-11T05:30:10.225Z,1.73
2023-03-11T05:32:38.190Z,1.90
2023-03-11T05:35:08.154Z,1.35
2023-03-11T05:37:38.960Z,1.47
2023-03-11T05:40:08.781Z,1.85
2023-03-11T05:42:36.643Z,1.67
2023-03-11T05:45:04.905Z,1.90
2023-03-11T05:47:32.825Z,2.05
2023-03-11T05:50:00.599Z,1.60
2023-03-11T05:52:30.554Z,1.52
2023-03-11T05:54:58.422Z,1.90
2023-03-11T05:57:26.264Z,1.77
2023-03-11T05:59:54.419Z,2.20
2023-03-11T06:02:23.158Z,2.08
2023-03-11T06:04:51.167Z,2.30
2023-03-11T06:07:19.408Z,1.83
2023-03-11T06:09:51.296Z,2.60
2023-03-11T06:12:19.174Z,2.03
2023-03-11T06:14:47.277Z,1.88
2023-03-11T06:17:15.056Z,1.88
2023-03-11T06:19:43.106Z,1.83
2023-03-11T06:22:10.970Z,1.50
2023-03-11T06:24:38.928Z,2.30
2023-03-11T06:27:09.205Z,3.20
2023-03-11T06:29:37.040Z,1.88
2023-03-11T06:32:05.132Z,2.08
2023-03-11T06:34:33.010Z,1.52
2023-03-11T06:37:01.036Z,2.55
2023-03-11T06:39:28.998Z,1.45
2023-03-11T06:41:57.953Z,1.90
2023-03-11T06:44:27.162Z,1.85
2023-03-11T06:46:54.925Z,2.45
2023-03-11T06:49:22.723Z,1.80
2023-03-11T06:51:50.580Z,2.50
2023-03-11T06:54:18.311Z,2.33
2023-03-11T06:56:46.138Z,2.00
2023-03-11T06:59:15.596Z,2.67
2023-03-11T07:01:44.761Z,1.67
2023-03-11T07:04:12.833Z,2.30
2023-03-11T07:06:42.206Z,3.25
2023-03-11T07:09:10.577Z,2.60
2023-03-11T07:11:38.567Z,2.50
2023-03-11T07:14:06.799Z,3.10
2023-03-11T07:16:34.712Z,2.72
2023-03-11T07:19:03.991Z,2.67
2023-03-11T07:21:33.305Z,2.90
2023-03-11T07:24:02.855Z,2.45
2023-03-11T07:26:32.092Z,2.50
2023-03-11T07:29:00.259Z,2.42
2023-03-11T07:31:30.223Z,2.33
2023-03-11T07:33:59.390Z,2.28
2023-03-11T07:36:29.734Z,2.85
2023-03-11T07:38:59.533Z,2.77
2023-03-11T07:41:28.314Z,3.33
2023-03-11T07:43:56.788Z,3.63
2023-03-11T07:46:26.121Z,2.77
2023-03-11T07:48:54.640Z,3.27
2023-03-11T07:51:24.527Z,3.50
2023-03-11T07:53:55.344Z,1.95
2023-03-11T07:56:26.145Z,2.97
2023-03-11T07:58:54.640Z,2.70
2023-03-11T08:01:24.900Z,3.10
2023-03-11T08:03:56.983Z,2.30
2023-03-11T08:06:27.283Z,4.47
2023-03-11T08:08:56.485Z,3.70
2023-03-11T08:11:24.698Z,2.67
2023-03-11T08:13:53.794Z,1.95
2023-03-11T08:16:23.075Z,2.83
2023-03-11T08:18:52.190Z,3.25
2023-03-11T08:21:22.001Z,2.75
2023-03-11T08:23:50.033Z,2.55
2023-03-11T08:26:21.594Z,3.10
2023-03-11T08:28:50.160Z,2.75
2023-03-11T08:31:19.828Z,2.28
2023-03-11T08:33:50.102Z,1.77
2023-03-11T08:36:18.697Z,2.67
2023-03-11T08:38:47.019Z,2.88
2023-03-11T08:41:14.953Z,1.83
2023-03-11T08:43:44.425Z,1.73
2023-03-11T08:46:18.597Z,2.80
2023-03-11T08:48:46.457Z,2.45
2023-03-11T08:51:15.145Z,3.00
2023-03-11T08:53:43.226Z,2.20
2023-03-11T08:56:11.210Z,1.45
2023-03-11T08:58:39.084Z,2.20
2023-03-11T09:01:10.029Z,2.58
2023-03-11T09:03:38.256Z,3.30
2023-03-11T09:06:08.722Z,2.05
2023-03-11T09:08:36.978Z,3.28
2023-03-11T09:11:09.574Z,2.60
2023-03-11T09:13:39.358Z,2.17
2023-03-11T09:16:09.204Z,2.35
2023-03-11T09:18:37.118Z,2.25
2023-03-11T09:21:05.798Z,3.67
2023-03-11T09:23:33.749Z,1.77
2023-03-11T09:26:01.586Z,1.63
2023-03-11T09:28:29.450Z,1.38
2023-03-11T09:30:57.917Z,1.55
2023-03-11T09:33:27.170Z,2.65
2023-03-11T09:35:55.107Z,2.17
2023-03-11T09:38:23.542Z,1.65
2023-03-11T09:40:58.524Z,2.50
2023-03-11T09:43:41.784Z,1.70
2023-03-11T09:46:31.466Z,2.25
2023-03-11T09:49:09.160Z,1.40
2023-03-11T09:51:42.230Z,1.40
2023-03-11T09:54:12.559Z,2.92
2023-03-11T09:56:44.432Z,2.00
2023-03-11T09:59:17.832Z,2.17
2023-03-11T10:01:47.671Z,1.90
2023-03-11T10:04:22.596Z,1.35
2023-03-11T10:06:51.651Z,1.80
2023-03-11T10:09:38.910Z,1.73
2023-03-11T10:12:34.222Z,2.20
2023-03-11T10:15:15.714Z,1.70
2023-03-11T10:18:01.459Z,2.03
2023-03-11T10:20:37.653Z,2.53
2023-03-11T10:23:14.459Z,1.45
2023-03-11T10:25:54.350Z,2.83
2023-03-11T10:28:25.600Z,2.75
2023-03-11T10:30:57.126Z,1.77
2023-03-11T10:33:30.383Z,2.10
2023-03-11T10:36:04.663Z,1.08
2023-03-11T10:38:35.789Z,1.10
2023-03-11T10:41:08.084Z,1.70
2023-03-11T10:43:39.976Z,2.08
2023-03-11T10:46:15.962Z,1.20
2023-03-11T10:48:43.777Z,2.00
2023-03-11T10:51:22.256Z,1.65
2023-03-11T10:53:52.719Z,2.22
2023-03-11T10:56:28.828Z,2.95
2023-03-11T10:58:57.483Z,2.85
2023-03-11T11:01:26.477Z,2.10
2023-03-11T11:03:56.648Z,3.88
2023-03-11T11:06:29.290Z,2.47
2023-03-11T11:09:17.001Z,1.98
2023-03-11T11:12:02.945Z,1.88
2023-03-11T11:14:44.571Z,2.37
2023-03-11T11:17:20.214Z,2.08
2023-03-11T11:19:49.896Z,2.05
2023-03-11T11:22:22.611Z,1.40
2023-03-11T11:24:52.388Z,1.90
2023-03-11T11:27:22.114Z,1.65
2023-03-11T11:30:12.295Z,2.03
2023-03-11T11:32:40.172Z,1.85
2023-03-11T11:35:12.216Z,1.98
2023-03-11T11:37:44.432Z,1.67
2023-03-11T11:40:27.797Z,2.08
2023-03-11T11:42:58.351Z,2.80
2023-03-11T11:45:33.665Z,1.67
2023-03-11T11:48:06.136Z,1.15
2023-03-11T11:50:37.131Z,1.70
2023-03-11T11:53:20.565Z,2.75
2023-03-11T11:55:50.330Z,1.77
2023-03-11T11:58:18.357Z,2.25
2023-03-11T12:00:59.380Z,1.40
2023-03-11T12:03:53.201Z,2.40
2023-03-11T12:06:26.568Z,1.55
2023-03-11T12:09:05.860Z,1.83
2023-03-11T12:11:41.919Z,2.13
2023-03-11T12:14:17.991Z,1.73
2023-03-11T12:16:53.415Z,1.95
2023-03-11T12:19:35.677Z,2.05
2023-03-11T12:22:33.407Z,2.45
2023-03-11T12:25:22.394Z,2.33
2023-03-11T12:27:55.856Z,1.63
2023-03-11T12:30:28.136Z,1.33
2023-03-11T12:33:00.030Z,1.45
2023-03-11T12:35:30.557Z,2.30
2023-03-11T12:38:15.466Z,1.38
2023-03-11T12:40:51.764Z,1.80
2023-03-11T12:43:44.638Z,2.10
2023-03-11T12:46:13.294Z,2.53
2023-03-11T12:48:45.793Z,1.88
2023-03-11T12:51:41.744Z,2.03
2023-03-11T12:54:28.538Z,2.40
2023-03-11T12:56:59.829Z,2.05
2023-03-11T12:59:56.545Z,1.85
2023-03-11T13:02:48.981Z,2.38
2023-03-11T13:05:24.633Z,3.17
2023-03-11T13:08:01.595Z,1.80
2023-03-11T13:10:39.932Z,1.85
2023-03-11T13:13:39.895Z,2.00
2023-03-11T13:16:39.814Z,2.40
2023-03-11T13:19:48.823Z,2.72
2023-03-11T13:23:05.655Z,2.05
2023-03-11T13:25:40.234Z,1.70
2023-03-11T13:28:33.280Z,1.83
2023-03-11T13:31:15.608Z,1.98
2023-03-11T13:33:53.032Z,1.88
2023-03-11T13:36:44.364Z,2.20
2023-03-11T13:39:29.401Z,3.17
2023-03-11T13:41:57.744Z,2.67
2023-03-11T13:44:32.598Z,1.85
2023-03-11T13:47:08.422Z,3.35
2023-03-11T13:49:41.061Z,1.75
2023-03-11T13:52:13.644Z,2.75
2023-03-11T13:54:47.434Z,2.30
2023-03-11T13:57:26.141Z,2.67
2023-03-11T13:59:55.014Z,2.80
2023-03-11T14:02:26.257Z,1.90
2023-03-11T14:04:58.432Z,2.83
2023-03-11T14:07:29.692Z,2.47
2023-03-11T14:10:24.936Z,2.97
2023-03-11T14:12:53.649Z,1.90
2023-03-11T14:15:24.194Z,2.08
2023-03-11T14:17:55.042Z,2.70
2023-03-11T14:20:25.348Z,2.78
2023-03-11T14:22:55.118Z,2.22
2023-03-11T14:25:25.685Z,2.28
2023-03-11T14:27:56.523Z,1.60
2023-03-11T14:30:27.994Z,2.58
2023-03-11T14:33:05.069Z,2.70
2023-03-11T14:35:34.961Z,2.33
2023-03-11T14:38:02.956Z,2.85
2023-03-11T14:40:32.946Z,2.53
2023-03-11T14:43:04.701Z,2.80
2023-03-11T14:45:36.339Z,2.67
2023-03-11T14:48:13.287Z,2.38
2023-03-11T14:50:41.303Z,2.28
2023-03-11T14:53:15.382Z,3.40
2023-03-11T14:55:50.822Z,2.17
2023-03-11T14:58:25.913Z,2.63
2023-03-11T15:00:58.433Z,2.65
2023-03-11T15:03:31.844Z,2.05
2023-03-11T15:06:03.062Z,2.58
2023-03-11T15:08:34.919Z,3.35
2023-03-11T15:11:06.218Z,2.20
2023-03-11T15:13:34.608Z,2.78
2023-03-11T15:16:03.806Z,3.28
2023-03-11T15:18:36.369Z,2.58
2023-03-11T15:21:07.757Z,2.85
2023-03-11T15:23:36.759Z,2.88
2023-03-11T15:26:06.892Z,3.40
2023-03-11T15:28:43.991Z,2.20
2023-03-11T15:31:30.966Z,3.65
2023-03-11T15:34:12.979Z,2.33
2023-03-11T15:36:45.556Z,2.38
2023-03-11T15:39:18.879Z,2.53
2023-03-11T15:41:48.808Z,3.05
2023-03-11T15:44:25.405Z,2.27
2023-03-11T15:46:54.065Z,3.58
2023-03-11T15:49:23.657Z,3.08
2023-03-11T15:51:51.597Z,2.75
2023-03-11T15:54:19.468Z,2.63
2023-03-11T15:56:47.703Z,2.42
2023-03-11T15:59:17.384Z,2.35
2023-03-11T16:01:47.101Z,2.88
2023-03-11T16:04:17.573Z,2.15
2023-03-11T16:06:56.482Z,3.17
2023-03-11T16:09:34.345Z,5.50
2023-03-11T16:12:03.049Z,3.78
2023-03-11T16:14:30.988Z,2.97
2023-03-11T16:16:58.903Z,2.83
2023-03-11T16:19:26.758Z,3.13
2023-03-11T16:21:55.933Z,2.27
2023-03-11T16:24:26.235Z,2.15
2023-03-11T16:26:54.709Z,2.92
2023-03-11T16:29:23.586Z,4.97
2023-03-11T16:31:51.751Z,2.88
2023-03-11T16:34:19.600Z,3.60
2023-03-11T16:36:47.361Z,3.38
2023-03-11T16:39:16.576Z,4.07
2023-03-11T16:41:45.693Z,4.30
2023-03-11T16:44:13.780Z,5.27
2023-03-11T16:46:41.631Z,4.40
2023-03-11T16:49:09.570Z,3.85
2023-03-11T16:51:37.342Z,3.50
2023-03-11T16:54:05.766Z,3.10
2023-03-11T16:56:35.672Z,3.63
2023-03-11T16:59:04.218Z,3.17
2023-03-11T17:01:32.031Z,3.90
2023-03-11T17:03:59.863Z,3.13
2023-03-11T17:06:27.643Z,3.42
2023-03-11T17:08:55.472Z,3.40
2023-03-11T17:11:28.234Z,3.90
2023-03-11T17:14:10.079Z,2.80
2023-03-11T17:16:43.555Z,2.90
2023-03-11T17:19:11.343Z,3.17
2023-03-11T17:21:39.205Z,4.20
2023-03-11T17:24:08.132Z,3.67
2023-03-11T17:26:35.983Z,4.90
2023-03-11T17:29:05.558Z,4.73
2023-03-11T17:31:33.726Z,3.83
2023-03-11T17:34:02.034Z,3.97
2023-03-11T17:36:30.085Z,4.15
2023-03-11T17:38:57.942Z,4.07
2023-03-11T17:41:25.785Z,3.58
2023-03-11T17:43:53.636Z,4.13
2023-03-11T17:46:23.500Z,4.27
2023-03-11T17:48:52.138Z,4.20
2023-03-11T17:51:22.632Z,4.65
2023-03-11T17:53:51.258Z,4.45
2023-03-11T17:56:20.421Z,2.92
2023-03-11T17:58:49.270Z,3.58
2023-03-11T18:01:19.375Z,4.32
2023-03-11T18:03:49.073Z,4.07
2023-03-11T18:06:18.382Z,4.07
2023-03-11T18:08:46.373Z,3.63
2023-03-11T18:11:18.933Z,3.08
2023-03-11T18:13:47.513Z,4.10
2023-03-11T18:16:16.893Z,4.38
2023-03-11T18:18:45.397Z,3.05
2023-03-11T18:21:16.186Z,3.67
2023-03-11T18:23:44.385Z,3.15
2023-03-11T18:26:14.848Z,4.00
2023-03-11T18:28:43.327Z,3.67
2023-03-11T18:31:13.240Z,3.75
2023-03-11T18:33:41.960Z,3.55
2023-03-11T18:36:17.178Z,3.50
2023-03-11T18:38:45.841Z,3.72
2023-03-11T18:41:14.211Z,3.58
2023-03-11T18:43:42.305Z,5.03
2023-03-11T18:46:12.058Z,3.30
2023-03-11T18:48:40.413Z,4.63
2023-03-11T18:51:09.426Z,5.13
2023-03-11T18:53:39.497Z,3.63
2023-03-11T18:56:12.035Z,4.50
2023-03-11T18:58:39.817Z,5.20
2023-03-11T19:01:12.280Z,7.07
2023-03-11T19:03:40.114Z,5.85
2023-03-11T19:06:09.234Z,3.50
2023-03-11T19:08:38.741Z,5.95
2023-03-11T19:11:07.874Z,3.70
2023-03-11T19:13:46.759Z,5.07
2023-03-11T19:16:16.595Z,4.75
2023-03-11T19:18:44.365Z,4.07
2023-03-11T19:21:14.220Z,7.75
2023-03-11T19:23:43.678Z,6.80
2023-03-11T19:26:11.903Z,6.47
2023-03-11T19:28:39.688Z,4.53
2023-03-11T19:31:07.627Z,4.75
2023-03-11T19:33:35.611Z,5.43
2023-03-11T19:36:05.998Z,5.55
2023-03-11T19:38:34.603Z,5.07
2023-03-11T19:41:06.192Z,6.03
2023-03-11T19:43:35.433Z,5.60
2023-03-11T19:46:03.812Z,5.90
2023-03-11T19:48:32.276Z,4.68
2023-03-11T19:51:00.187Z,5.00
2023-03-11T19:53:28.427Z,3.70
2023-03-11T19:55:57.621Z,4.13
2023-03-11T19:58:30.223Z,4.78
2023-03-11T20:00:58.987Z,4.45
2023-03-11T20:03:27.448Z,6.25
2023-03-11T20:05:57.763Z,3.50
2023-03-11T20:08:26.914Z,4.55
2023-03-11T20:10:55.272Z,4.28
2023-03-11T20:13:23.606Z,5.20
2023-03-11T20:15:52.976Z,4.63
2023-03-11T20:18:21.022Z,3.97
2023-03-11T20:20:48.830Z,5.57
2023-03-11T20:23:16.637Z,3.92
2023-03-11T20:25:44.481Z,5.30
2023-03-11T20:28:12.339Z,4.20
2023-03-11T20:30:40.611Z,3.65
2023-03-11T20:33:10.054Z,4.05
2023-03-11T20:35:37.964Z,3.80
2023-03-11T20:38:07.734Z,5.00
2023-03-11T20:40:35.948Z,5.35
2023-03-11T20:43:03.810Z,4.20
2023-03-11T20:45:32.167Z,4.50
2023-03-11T20:48:00.040Z,5.93
2023-03-11T20:50:29.319Z,5.82
2023-03-11T20:52:57.118Z,5.70
2023-03-11T20:55:25.561Z,5.85
2023-03-11T20:57:54.178Z,5.20
2023-03-11T21:00:22.657Z,4.83
2023-03-11T21:02:50.712Z,4.18
2023-03-11T21:05:18.900Z,4.43
2023-03-11T21:07:49.243Z,4.75
2023-03-11T21:10:17.522Z,5.07
2023-03-11T21:12:45.413Z,4.07
2023-03-11T21:15:13.558Z,4.87
2023-03-11T21:17:41.431Z,3.95
2023-03-11T21:20:11.260Z,4.05
2023-03-11T21:22:39.180Z,4.78
2023-03-11T21:25:09.685Z,6.15
2023-03-11T21:27:37.500Z,4.25
2023-03-11T21:30:08.396Z,5.32
2023-03-11T21:32:36.365Z,5.00
2023-03-11T21:35:05.133Z,4.30
2023-03-11T21:37:33.078Z,4.28
2023-03-11T21:40:01.035Z,4.33
2023-03-11T21:42:31.441Z,4.70
2023-03-11T21:44:59.344Z,4.55
2023-03-11T21:47:27.278Z,4.97
2023-03-11T21:49:55.104Z,5.68
2023-03-11T21:52:23.028Z,3.80
2023-03-11T21:54:50.790Z,4.70
2023-03-11T21:57:18.672Z,4.47
2023-03-11T21:59:48.034Z,4.00
2023-03-11T22:02:17.359Z,3.60
2023-03-11T22:04:45.389Z,4.53
2023-03-11T22:07:13.236Z,4.85
2023-03-11T22:09:41.052Z,4.85
2023-03-11T22:12:09.202Z,4.47
2023-03-11T22:14:37.026Z,5.13
2023-03-11T22:17:06.350Z,5.10
2023-03-11T22:19:34.196Z,3.90
2023-03-11T22:22:02.121Z,4.40
2023-03-11T22:24:29.913Z,5.05
2023-03-11T22:26:57.752Z,3.35
2023-03-11T22:29:25.640Z,4.70
2023-03-11T22:31:53.561Z,3.80
2023-03-11T22:34:22.698Z,4.45
2023-03-11T22:36:50.634Z,4.20
2023-03-11T22:39:18.514Z,4.97
2023-03-11T22:41:46.298Z,3.33
2023-03-11T22:44:14.151Z,4.45
2023-03-11T22:46:41.983Z,4.15
2023-03-11T22:49:09.740Z,5.45
2023-03-11T22:51:38.873Z,7.20
2023-03-11T22:54:06.886Z,4.45
2023-03-11T22:56:34.996Z,3.47
2023-03-11T22:59:03.348Z,4.65
2023-03-11T23:01:32.803Z,4.50
2023-03-11T23:04:00.933Z,3.40
2023-03-11T23:06:28.994Z,4.43
2023-03-11T23:08:58.240Z,3.85
2023-03-11T23:11:26.043Z,4.43
2023-03-11T23:13:53.884Z,3.97
2023-03-11T23:16:23.175Z,4.50
2023-03-11T23:18:53.611Z,4.80
2023-03-11T23:21:23.505Z,4.40
2023-03-11T23:23:51.776Z,4.40
2023-03-11T23:26:21.924Z,4.80
2023-03-11T23:28:51.035Z,5.50
2023-03-11T23:31:20.761Z,4.90
2023-03-11T23:33:48.955Z,4.82
2023-03-11T23:36:19.529Z,4.53
2023-03-11T23:38:47.876Z,4.68
2023-03-11T23:41:17.831Z,5.07
2023-03-11T23:43:47.021Z,4.75
2023-03-11T23:46:15.188Z,5.03
2023-03-11T23:48:43.188Z,5.40
2023-03-11T23:51:11.087Z,5.90
2023-03-11T23:53:39.310Z,5.47
2023-03-11T23:56:11.300Z,4.22
2023-03-11T23:58:39.114Z,5.97
